sensor_id;sensor_type;location;lat;lon;timestamp;P1;durP1;ratioP1;P2;durP2;ratioP2
55328;SDS011;41205;44.264;19.884;2023-07-31T00:02:00;12.52;;;10.75;;
55328;SDS011;41205;44.264;19.884;2023-07-31T00:04:26;15.52;;;10.77;;
55328;SDS011;41205;44.264;19.884;2023-07-31T00:06:51;15.00;;;11.10;;
55328;SDS011;41205;44.264;19.884;2023-07-31T00:09:17;13.88;;;11.48;;
55328;SDS011;41205;44.264;19.884;2023-07-31T00:11:43;16.42;;;11.90;;
55328;SDS011;41205;44.264;19.884;2023-07-31T00:14:08;13.00;;;11.63;;
55328;SDS011;41205;44.264;19.884;2023-07-31T00:16:34;12.93;;;11.30;;
55328;SDS011;41205;44.264;19.884;2023-07-31T00:19:00;13.48;;;12.07;;
55328;SDS011;41205;44.264;19.884;2023-07-31T00:21:26;15.02;;;13.57;;
55328;SDS011;41205;44.264;19.884;2023-07-31T00:27:14;15.40;;;12.25;;
55328;SDS011;41205;44.264;19.884;2023-07-31T00:29:40;21.20;;;12.27;;
55328;SDS011;41205;44.264;19.884;2023-07-31T00:32:06;15.38;;;11.18;;
55328;SDS011;41205;44.264;19.884;2023-07-31T00:34:32;12.93;;;11.63;;
55328;SDS011;41205;44.264;19.884;2023-07-31T00:36:58;11.25;;;10.07;;
55328;SDS011;41205;44.264;19.884;2023-07-31T00:39:23;12.35;;;10.68;;
55328;SDS011;41205;44.264;19.884;2023-07-31T00:41:49;12.90;;;11.15;;
55328;SDS011;41205;44.264;19.884;2023-07-31T00:44:15;14.25;;;12.40;;
55328;SDS011;41205;44.264;19.884;2023-07-31T00:46:41;13.07;;;11.68;;
55328;SDS011;41205;44.264;19.884;2023-07-31T00:49:07;15.38;;;11.60;;
55328;SDS011;41205;44.264;19.884;2023-07-31T00:51:33;13.40;;;12.02;;
55328;SDS011;41205;44.264;19.884;2023-07-31T00:53:59;12.82;;;10.93;;
55328;SDS011;41205;44.264;19.884;2023-07-31T00:56:25;12.70;;;10.30;;
55328;SDS011;41205;44.264;19.884;2023-07-31T00:58:52;11.15;;;9.70;;
55328;SDS011;41205;44.264;19.884;2023-07-31T01:01:18;14.45;;;10.68;;
55328;SDS011;41205;44.264;19.884;2023-07-31T01:03:44;11.80;;;10.15;;
55328;SDS011;41205;44.264;19.884;2023-07-31T01:11:17;12.88;;;10.18;;
55328;SDS011;41205;44.264;19.884;2023-07-31T01:13:49;10.88;;;9.68;;
55328;SDS011;41205;44.264;19.884;2023-07-31T01:16:15;10.80;;;9.60;;
55328;SDS011;41205;44.264;19.884;2023-07-31T01:18:40;12.60;;;10.00;;
55328;SDS011;41205;44.264;19.884;2023-07-31T01:26:41;15.13;;;10.23;;
55328;SDS011;41205;44.264;19.884;2023-07-31T01:31:40;16.25;;;10.48;;
55328;SDS011;41205;44.264;19.884;2023-07-31T01:34:09;15.70;;;9.90;;
55328;SDS011;41205;44.264;19.884;2023-07-31T01:36:36;11.07;;;9.93;;
55328;SDS011;41205;44.264;19.884;2023-07-31T01:39:02;15.95;;;10.57;;
55328;SDS011;41205;44.264;19.884;2023-07-31T01:41:29;12.80;;;9.88;;
55328;SDS011;41205;44.264;19.884;2023-07-31T01:43:54;11.95;;;10.50;;
55328;SDS011;41205;44.264;19.884;2023-07-31T01:46:20;14.13;;;10.10;;
55328;SDS011;41205;44.264;19.884;2023-07-31T01:48:46;22.15;;;11.25;;
55328;SDS011;41205;44.264;19.884;2023-07-31T01:51:11;10.70;;;9.63;;
55328;SDS011;41205;44.264;19.884;2023-07-31T01:53:37;14.10;;;11.10;;
55328;SDS011;41205;44.264;19.884;2023-07-31T01:56:03;11.95;;;10.32;;
55328;SDS011;41205;44.264;19.884;2023-07-31T01:58:29;11.05;;;9.10;;
55328;SDS011;41205;44.264;19.884;2023-07-31T02:00:54;14.18;;;9.52;;
55328;SDS011;41205;44.264;19.884;2023-07-31T02:03:20;11.50;;;8.48;;
55328;SDS011;41205;44.264;19.884;2023-07-31T02:05:49;11.13;;;9.20;;
55328;SDS011;41205;44.264;19.884;2023-07-31T02:08:15;11.48;;;10.00;;
55328;SDS011;41205;44.264;19.884;2023-07-31T02:10:41;9.23;;;8.32;;
55328;SDS011;41205;44.264;19.884;2023-07-31T02:13:07;11.23;;;8.95;;
55328;SDS011;41205;44.264;19.884;2023-07-31T02:15:33;10.63;;;9.07;;
55328;SDS011;41205;44.264;19.884;2023-07-31T02:17:59;11.55;;;9.43;;
55328;SDS011;41205;44.264;19.884;2023-07-31T02:20:25;10.77;;;9.70;;
55328;SDS011;41205;44.264;19.884;2023-07-31T02:22:50;12.13;;;9.23;;
55328;SDS011;41205;44.264;19.884;2023-07-31T02:25:16;11.75;;;9.02;;
55328;SDS011;41205;44.264;19.884;2023-07-31T02:27:42;9.95;;;8.85;;
55328;SDS011;41205;44.264;19.884;2023-07-31T02:30:08;9.90;;;8.70;;
55328;SDS011;41205;44.264;19.884;2023-07-31T02:32:34;11.40;;;8.95;;
55328;SDS011;41205;44.264;19.884;2023-07-31T02:35:00;12.15;;;9.02;;
55328;SDS011;41205;44.264;19.884;2023-07-31T02:37:25;10.48;;;8.60;;
55328;SDS011;41205;44.264;19.884;2023-07-31T02:39:53;10.63;;;8.45;;
55328;SDS011;41205;44.264;19.884;2023-07-31T02:42:19;11.82;;;9.00;;
55328;SDS011;41205;44.264;19.884;2023-07-31T02:44:45;10.15;;;8.63;;
55328;SDS011;41205;44.264;19.884;2023-07-31T02:47:10;11.23;;;8.38;;
55328;SDS011;41205;44.264;19.884;2023-07-31T02:49:36;9.80;;;8.27;;
55328;SDS011;41205;44.264;19.884;2023-07-31T02:52:02;12.20;;;8.68;;
55328;SDS011;41205;44.264;19.884;2023-07-31T02:54:28;10.38;;;9.27;;
55328;SDS011;41205;44.264;19.884;2023-07-31T02:56:53;11.80;;;9.35;;
55328;SDS011;41205;44.264;19.884;2023-07-31T02:59:19;12.27;;;8.23;;
55328;SDS011;41205;44.264;19.884;2023-07-31T03:01:45;11.40;;;8.63;;
55328;SDS011;41205;44.264;19.884;2023-07-31T03:04:11;13.32;;;8.15;;
55328;SDS011;41205;44.264;19.884;2023-07-31T03:06:37;11.13;;;9.18;;
55328;SDS011;41205;44.264;19.884;2023-07-31T03:09:02;10.57;;;7.97;;
55328;SDS011;41205;44.264;19.884;2023-07-31T03:11:28;10.88;;;8.98;;
55328;SDS011;41205;44.264;19.884;2023-07-31T03:13:54;10.02;;;8.60;;
55328;SDS011;41205;44.264;19.884;2023-07-31T03:16:19;9.40;;;8.07;;
55328;SDS011;41205;44.264;19.884;2023-07-31T03:18:45;8.80;;;7.68;;
55328;SDS011;41205;44.264;19.884;2023-07-31T03:21:11;10.70;;;8.38;;
55328;SDS011;41205;44.264;19.884;2023-07-31T03:23:37;9.10;;;8.07;;
55328;SDS011;41205;44.264;19.884;2023-07-31T03:26:05;8.90;;;7.70;;
55328;SDS011;41205;44.264;19.884;2023-07-31T03:28:32;10.50;;;8.00;;
55328;SDS011;41205;44.264;19.884;2023-07-31T03:30:58;8.98;;;7.35;;
55328;SDS011;41205;44.264;19.884;2023-07-31T03:33:24;11.90;;;6.90;;
55328;SDS011;41205;44.264;19.884;2023-07-31T03:35:50;7.47;;;6.38;;
55328;SDS011;41205;44.264;19.884;2023-07-31T03:38:16;8.38;;;6.63;;
55328;SDS011;41205;44.264;19.884;2023-07-31T03:40:42;10.93;;;7.05;;
55328;SDS011;41205;44.264;19.884;2023-07-31T03:43:07;9.07;;;7.30;;
55328;SDS011;41205;44.264;19.884;2023-07-31T03:45:33;8.02;;;6.95;;
55328;SDS011;41205;44.264;19.884;2023-07-31T03:47:59;9.60;;;6.53;;
55328;SDS011;41205;44.264;19.884;2023-07-31T03:50:24;12.43;;;7.60;;
55328;SDS011;41205;44.264;19.884;2023-07-31T03:52:50;8.55;;;7.13;;
55328;SDS011;41205;44.264;19.884;2023-07-31T03:55:16;11.57;;;7.25;;
55328;SDS011;41205;44.264;19.884;2023-07-31T03:57:43;8.95;;;7.68;;
55328;SDS011;41205;44.264;19.884;2023-07-31T04:00:09;8.80;;;7.28;;
55328;SDS011;41205;44.264;19.884;2023-07-31T04:02:35;10.18;;;7.55;;
55328;SDS011;41205;44.264;19.884;2023-07-31T04:05:00;10.00;;;7.25;;
55328;SDS011;41205;44.264;19.884;2023-07-31T04:07:26;10.02;;;7.60;;
55328;SDS011;41205;44.264;19.884;2023-07-31T04:09:52;8.98;;;7.60;;
55328;SDS011;41205;44.264;19.884;2023-07-31T04:12:17;9.80;;;7.13;;
55328;SDS011;41205;44.264;19.884;2023-07-31T04:14:43;11.05;;;7.25;;
55328;SDS011;41205;44.264;19.884;2023-07-31T04:17:09;10.57;;;7.25;;
55328;SDS011;41205;44.264;19.884;2023-07-31T04:19:34;8.90;;;7.03;;
55328;SDS011;41205;44.264;19.884;2023-07-31T04:22:00;7.93;;;6.75;;
55328;SDS011;41205;44.264;19.884;2023-07-31T04:24:26;8.40;;;7.50;;
55328;SDS011;41205;44.264;19.884;2023-07-31T04:26:52;9.23;;;7.47;;
55328;SDS011;41205;44.264;19.884;2023-07-31T04:29:18;10.80;;;8.82;;
55328;SDS011;41205;44.264;19.884;2023-07-31T04:31:44;8.60;;;7.80;;
55328;SDS011;41205;44.264;19.884;2023-07-31T04:34:10;9.40;;;8.35;;
55328;SDS011;41205;44.264;19.884;2023-07-31T04:36:36;9.85;;;7.90;;
55328;SDS011;41205;44.264;19.884;2023-07-31T04:39:02;9.07;;;8.18;;
55328;SDS011;41205;44.264;19.884;2023-07-31T04:41:28;8.70;;;7.70;;
55328;SDS011;41205;44.264;19.884;2023-07-31T04:43:54;9.57;;;7.78;;
55328;SDS011;41205;44.264;19.884;2023-07-31T04:46:19;10.35;;;7.68;;
55328;SDS011;41205;44.264;19.884;2023-07-31T04:48:45;9.02;;;8.00;;
55328;SDS011;41205;44.264;19.884;2023-07-31T04:51:11;9.65;;;8.65;;
55328;SDS011;41205;44.264;19.884;2023-07-31T04:53:36;9.38;;;8.18;;
55328;SDS011;41205;44.264;19.884;2023-07-31T04:56:02;11.07;;;7.68;;
55328;SDS011;41205;44.264;19.884;2023-07-31T04:58:28;10.93;;;8.48;;
55328;SDS011;41205;44.264;19.884;2023-07-31T05:00:54;9.18;;;7.75;;
55328;SDS011;41205;44.264;19.884;2023-07-31T05:03:19;8.32;;;7.53;;
55328;SDS011;41205;44.264;19.884;2023-07-31T05:05:45;9.73;;;7.10;;
55328;SDS011;41205;44.264;19.884;2023-07-31T05:08:11;7.43;;;6.40;;
55328;SDS011;41205;44.264;19.884;2023-07-31T05:10:37;7.47;;;6.75;;
55328;SDS011;41205;44.264;19.884;2023-07-31T05:13:02;7.35;;;6.43;;
55328;SDS011;41205;44.264;19.884;2023-07-31T05:15:28;6.65;;;6.00;;
55328;SDS011;41205;44.264;19.884;2023-07-31T05:17:54;6.72;;;5.93;;
55328;SDS011;41205;44.264;19.884;2023-07-31T05:20:20;10.13;;;6.50;;
55328;SDS011;41205;44.264;19.884;2023-07-31T05:22:46;7.35;;;6.45;;
55328;SDS011;41205;44.264;19.884;2023-07-31T05:25:12;7.90;;;6.18;;
55328;SDS011;41205;44.264;19.884;2023-07-31T05:27:38;8.55;;;6.40;;
55328;SDS011;41205;44.264;19.884;2023-07-31T05:30:04;7.10;;;6.40;;
55328;SDS011;41205;44.264;19.884;2023-07-31T05:32:30;6.85;;;6.15;;
55328;SDS011;41205;44.264;19.884;2023-07-31T05:34:56;9.68;;;6.63;;
55328;SDS011;41205;44.264;19.884;2023-07-31T05:37:22;9.60;;;6.68;;
55328;SDS011;41205;44.264;19.884;2023-07-31T05:39:47;7.82;;;7.03;;
55328;SDS011;41205;44.264;19.884;2023-07-31T05:42:13;8.10;;;7.20;;
55328;SDS011;41205;44.264;19.884;2023-07-31T05:44:39;8.93;;;7.10;;
55328;SDS011;41205;44.264;19.884;2023-07-31T05:47:05;10.00;;;5.80;;
55328;SDS011;41205;44.264;19.884;2023-07-31T05:49:30;6.68;;;6.07;;
55328;SDS011;41205;44.264;19.884;2023-07-31T05:51:56;11.20;;;7.43;;
55328;SDS011;41205;44.264;19.884;2023-07-31T05:54:22;8.13;;;6.68;;
55328;SDS011;41205;44.264;19.884;2023-07-31T05:56:47;9.77;;;6.25;;
55328;SDS011;41205;44.264;19.884;2023-07-31T05:59:13;6.88;;;5.78;;
55328;SDS011;41205;44.264;19.884;2023-07-31T06:01:39;10.02;;;7.45;;
55328;SDS011;41205;44.264;19.884;2023-07-31T06:04:05;8.40;;;7.60;;
55328;SDS011;41205;44.264;19.884;2023-07-31T06:06:30;10.10;;;7.55;;
55328;SDS011;41205;44.264;19.884;2023-07-31T06:08:56;11.25;;;7.00;;
55328;SDS011;41205;44.264;19.884;2023-07-31T06:11:22;8.55;;;7.75;;
55328;SDS011;41205;44.264;19.884;2023-07-31T06:13:48;7.38;;;6.57;;
55328;SDS011;41205;44.264;19.884;2023-07-31T06:16:15;6.93;;;6.22;;
55328;SDS011;41205;44.264;19.884;2023-07-31T06:18:42;7.25;;;6.65;;
55328;SDS011;41205;44.264;19.884;2023-07-31T06:21:08;8.68;;;7.85;;
55328;SDS011;41205;44.264;19.884;2023-07-31T06:23:34;8.45;;;7.75;;
55328;SDS011;41205;44.264;19.884;2023-07-31T06:26:00;7.88;;;7.13;;
55328;SDS011;41205;44.264;19.884;2023-07-31T06:28:29;7.28;;;6.57;;
55328;SDS011;41205;44.264;19.884;2023-07-31T06:30:56;7.85;;;7.25;;
55328;SDS011;41205;44.264;19.884;2023-07-31T06:33:26;7.72;;;6.97;;
55328;SDS011;41205;44.264;19.884;2023-07-31T06:35:52;7.82;;;7.18;;
55328;SDS011;41205;44.264;19.884;2023-07-31T06:38:21;8.32;;;7.60;;
55328;SDS011;41205;44.264;19.884;2023-07-31T06:40:49;8.43;;;7.70;;
55328;SDS011;41205;44.264;19.884;2023-07-31T06:43:14;8.85;;;8.25;;
55328;SDS011;41205;44.264;19.884;2023-07-31T06:45:40;6.85;;;6.10;;
55328;SDS011;41205;44.264;19.884;2023-07-31T06:48:06;8.00;;;7.35;;
55328;SDS011;41205;44.264;19.884;2023-07-31T06:50:31;8.85;;;8.30;;
55328;SDS011;41205;44.264;19.884;2023-07-31T06:52:57;7.03;;;5.22;;
55328;SDS011;41205;44.264;19.884;2023-07-31T06:55:23;5.32;;;4.80;;
55328;SDS011;41205;44.264;19.884;2023-07-31T06:57:50;6.88;;;5.30;;
55328;SDS011;41205;44.264;19.884;2023-07-31T07:00:18;6.13;;;4.85;;
55328;SDS011;41205;44.264;19.884;2023-07-31T07:02:45;6.70;;;6.10;;
55328;SDS011;41205;44.264;19.884;2023-07-31T07:05:14;5.95;;;5.10;;
55328;SDS011;41205;44.264;19.884;2023-07-31T07:07:40;6.10;;;5.40;;
55328;SDS011;41205;44.264;19.884;2023-07-31T07:10:06;5.20;;;4.70;;
55328;SDS011;41205;44.264;19.884;2023-07-31T07:12:32;5.65;;;5.15;;
55328;SDS011;41205;44.264;19.884;2023-07-31T07:14:58;5.03;;;4.30;;
55328;SDS011;41205;44.264;19.884;2023-07-31T07:17:25;5.65;;;4.18;;
55328;SDS011;41205;44.264;19.884;2023-07-31T07:19:51;5.25;;;4.75;;
55328;SDS011;41205;44.264;19.884;2023-07-31T07:22:17;4.85;;;4.30;;
55328;SDS011;41205;44.264;19.884;2023-07-31T07:24:43;5.35;;;4.63;;
55328;SDS011;41205;44.264;19.884;2023-07-31T07:27:09;6.03;;;4.45;;
55328;SDS011;41205;44.264;19.884;2023-07-31T07:29:34;6.78;;;4.30;;
55328;SDS011;41205;44.264;19.884;2023-07-31T07:32:00;9.98;;;4.25;;
55328;SDS011;41205;44.264;19.884;2023-07-31T07:34:27;5.10;;;4.60;;
55328;SDS011;41205;44.264;19.884;2023-07-31T07:36:53;5.68;;;5.15;;
55328;SDS011;41205;44.264;19.884;2023-07-31T07:39:19;5.13;;;4.63;;
55328;SDS011;41205;44.264;19.884;2023-07-31T07:41:45;6.45;;;4.97;;
55328;SDS011;41205;44.264;19.884;2023-07-31T07:44:11;5.15;;;4.65;;
55328;SDS011;41205;44.264;19.884;2023-07-31T07:46:37;6.45;;;4.72;;
55328;SDS011;41205;44.264;19.884;2023-07-31T07:49:03;4.97;;;4.43;;
55328;SDS011;41205;44.264;19.884;2023-07-31T07:51:29;5.40;;;4.55;;
55328;SDS011;41205;44.264;19.884;2023-07-31T07:53:56;6.18;;;4.70;;
55328;SDS011;41205;44.264;19.884;2023-07-31T07:56:25;4.82;;;4.18;;
55328;SDS011;41205;44.264;19.884;2023-07-31T07:58:52;6.47;;;4.90;;
55328;SDS011;41205;44.264;19.884;2023-07-31T08:01:18;6.20;;;4.60;;
55328;SDS011;41205;44.264;19.884;2023-07-31T08:03:44;6.40;;;4.90;;
55328;SDS011;41205;44.264;19.884;2023-07-31T08:06:10;7.32;;;4.53;;
55328;SDS011;41205;44.264;19.884;2023-07-31T08:08:36;35.55;;;8.68;;
55328;SDS011;41205;44.264;19.884;2023-07-31T08:11:01;5.20;;;4.05;;
55328;SDS011;41205;44.264;19.884;2023-07-31T08:13:27;5.00;;;4.05;;
55328;SDS011;41205;44.264;19.884;2023-07-31T08:15:53;4.90;;;4.40;;
55328;SDS011;41205;44.264;19.884;2023-07-31T08:18:19;5.30;;;4.30;;
55328;SDS011;41205;44.264;19.884;2023-07-31T08:20:45;5.90;;;4.40;;
55328;SDS011;41205;44.264;19.884;2023-07-31T08:23:11;5.43;;;4.15;;
55328;SDS011;41205;44.264;19.884;2023-07-31T08:25:40;5.70;;;4.60;;
55328;SDS011;41205;44.264;19.884;2023-07-31T08:28:06;4.95;;;4.07;;
55328;SDS011;41205;44.264;19.884;2023-07-31T08:30:32;7.20;;;4.78;;
55328;SDS011;41205;44.264;19.884;2023-07-31T08:33:01;6.40;;;4.60;;
55328;SDS011;41205;44.264;19.884;2023-07-31T08:35:27;5.97;;;4.60;;
55328;SDS011;41205;44.264;19.884;2023-07-31T08:37:54;7.35;;;5.35;;
55328;SDS011;41205;44.264;19.884;2023-07-31T08:40:20;5.95;;;4.80;;
55328;SDS011;41205;44.264;19.884;2023-07-31T08:42:47;6.65;;;4.63;;
55328;SDS011;41205;44.264;19.884;2023-07-31T08:45:15;6.80;;;5.05;;
55328;SDS011;41205;44.264;19.884;2023-07-31T08:47:46;5.03;;;4.53;;
55328;SDS011;41205;44.264;19.884;2023-07-31T08:50:17;6.63;;;5.20;;
55328;SDS011;41205;44.264;19.884;2023-07-31T08:52:48;5.00;;;4.50;;
55328;SDS011;41205;44.264;19.884;2023-07-31T08:55:15;4.95;;;4.25;;
55328;SDS011;41205;44.264;19.884;2023-07-31T08:57:42;5.22;;;4.13;;
55328;SDS011;41205;44.264;19.884;2023-07-31T09:00:09;15.13;;;6.13;;
55328;SDS011;41205;44.264;19.884;2023-07-31T09:02:45;4.40;;;4.00;;
55328;SDS011;41205;44.264;19.884;2023-07-31T09:05:12;4.93;;;4.43;;
55328;SDS011;41205;44.264;19.884;2023-07-31T09:07:37;5.30;;;4.53;;
55328;SDS011;41205;44.264;19.884;2023-07-31T09:10:04;5.63;;;3.83;;
55328;SDS011;41205;44.264;19.884;2023-07-31T09:12:31;4.20;;;3.80;;
55328;SDS011;41205;44.264;19.884;2023-07-31T09:14:57;5.10;;;3.67;;
55328;SDS011;41205;44.264;19.884;2023-07-31T09:17:32;10.77;;;4.45;;
55328;SDS011;41205;44.264;19.884;2023-07-31T09:20:19;4.30;;;3.70;;
55328;SDS011;41205;44.264;19.884;2023-07-31T09:22:46;6.25;;;3.75;;
55328;SDS011;41205;44.264;19.884;2023-07-31T09:25:17;5.07;;;4.10;;
55328;SDS011;41205;44.264;19.884;2023-07-31T09:28:02;5.95;;;3.85;;
55328;SDS011;41205;44.264;19.884;2023-07-31T09:30:30;5.85;;;4.15;;
55328;SDS011;41205;44.264;19.884;2023-07-31T09:33:09;4.78;;;3.90;;
55328;SDS011;41205;44.264;19.884;2023-07-31T09:35:35;5.32;;;3.97;;
55328;SDS011;41205;44.264;19.884;2023-07-31T09:38:03;4.05;;;3.60;;
55328;SDS011;41205;44.264;19.884;2023-07-31T09:40:32;7.03;;;3.83;;
55328;SDS011;41205;44.264;19.884;2023-07-31T09:42:59;6.72;;;3.70;;
55328;SDS011;41205;44.264;19.884;2023-07-31T09:45:26;4.63;;;3.95;;
55328;SDS011;41205;44.264;19.884;2023-07-31T09:47:53;5.38;;;3.78;;
55328;SDS011;41205;44.264;19.884;2023-07-31T09:50:22;5.82;;;3.78;;
55328;SDS011;41205;44.264;19.884;2023-07-31T09:52:49;5.07;;;3.90;;
55328;SDS011;41205;44.264;19.884;2023-07-31T09:55:16;4.45;;;3.13;;
55328;SDS011;41205;44.264;19.884;2023-07-31T09:57:43;5.18;;;3.92;;
55328;SDS011;41205;44.264;19.884;2023-07-31T10:00:11;5.32;;;4.13;;
55328;SDS011;41205;44.264;19.884;2023-07-31T10:02:38;4.20;;;3.63;;
55328;SDS011;41205;44.264;19.884;2023-07-31T10:05:05;4.97;;;3.65;;
55328;SDS011;41205;44.264;19.884;2023-07-31T10:07:33;4.93;;;3.38;;
55328;SDS011;41205;44.264;19.884;2023-07-31T10:10:07;5.93;;;3.78;;
55328;SDS011;41205;44.264;19.884;2023-07-31T10:12:34;4.97;;;3.63;;
55328;SDS011;41205;44.264;19.884;2023-07-31T10:15:01;4.53;;;3.15;;
55328;SDS011;41205;44.264;19.884;2023-07-31T10:17:29;7.65;;;3.47;;
55328;SDS011;41205;44.264;19.884;2023-07-31T10:19:57;3.58;;;3.15;;
55328;SDS011;41205;44.264;19.884;2023-07-31T10:22:26;3.83;;;3.42;;
55328;SDS011;41205;44.264;19.884;2023-07-31T10:24:52;4.43;;;3.58;;
55328;SDS011;41205;44.264;19.884;2023-07-31T10:27:20;4.43;;;3.30;;
55328;SDS011;41205;44.264;19.884;2023-07-31T10:29:45;7.32;;;4.43;;
55328;SDS011;41205;44.264;19.884;2023-07-31T10:32:13;4.38;;;3.75;;
55328;SDS011;41205;44.264;19.884;2023-07-31T10:34:40;9.43;;;7.25;;
55328;SDS011;41205;44.264;19.884;2023-07-31T10:37:26;5.78;;;3.45;;
55328;SDS011;41205;44.264;19.884;2023-07-31T10:39:58;4.80;;;3.70;;
55328;SDS011;41205;44.264;19.884;2023-07-31T10:42:45;4.95;;;3.47;;
55328;SDS011;41205;44.264;19.884;2023-07-31T10:45:12;3.65;;;2.90;;
55328;SDS011;41205;44.264;19.884;2023-07-31T10:47:45;5.00;;;3.35;;
55328;SDS011;41205;44.264;19.884;2023-07-31T10:52:47;7.13;;;3.33;;
55328;SDS011;41205;44.264;19.884;2023-07-31T10:55:24;4.28;;;3.35;;
55328;SDS011;41205;44.264;19.884;2023-07-31T10:57:55;4.60;;;3.10;;
55328;SDS011;41205;44.264;19.884;2023-07-31T11:03:02;5.95;;;3.55;;
55328;SDS011;41205;44.264;19.884;2023-07-31T11:13:40;9.90;;;3.45;;
55328;SDS011;41205;44.264;19.884;2023-07-31T11:16:06;4.78;;;2.95;;
55328;SDS011;41205;44.264;19.884;2023-07-31T11:18:32;5.00;;;3.85;;
55328;SDS011;41205;44.264;19.884;2023-07-31T11:20:57;6.53;;;3.53;;
55328;SDS011;41205;44.264;19.884;2023-07-31T11:23:23;5.80;;;3.67;;
55328;SDS011;41205;44.264;19.884;2023-07-31T11:25:49;8.95;;;3.47;;
55328;SDS011;41205;44.264;19.884;2023-07-31T11:28:16;6.13;;;3.58;;
55328;SDS011;41205;44.264;19.884;2023-07-31T11:30:43;4.30;;;3.15;;
55328;SDS011;41205;44.264;19.884;2023-07-31T11:33:11;5.70;;;3.42;;
55328;SDS011;41205;44.264;19.884;2023-07-31T11:35:44;3.92;;;3.08;;
55328;SDS011;41205;44.264;19.884;2023-07-31T11:38:32;7.68;;;3.78;;
55328;SDS011;41205;44.264;19.884;2023-07-31T11:40:59;6.63;;;3.80;;
55328;SDS011;41205;44.264;19.884;2023-07-31T11:43:27;5.00;;;3.35;;
55328;SDS011;41205;44.264;19.884;2023-07-31T11:45:57;4.75;;;4.00;;
55328;SDS011;41205;44.264;19.884;2023-07-31T11:48:30;6.53;;;3.42;;
55328;SDS011;41205;44.264;19.884;2023-07-31T11:50:59;4.55;;;3.67;;
55328;SDS011;41205;44.264;19.884;2023-07-31T11:53:31;7.22;;;3.60;;
55328;SDS011;41205;44.264;19.884;2023-07-31T11:55:59;5.95;;;3.65;;
55328;SDS011;41205;44.264;19.884;2023-07-31T11:58:29;3.53;;;3.10;;
55328;SDS011;41205;44.264;19.884;2023-07-31T12:00:56;5.32;;;3.47;;
55328;SDS011;41205;44.264;19.884;2023-07-31T12:03:23;5.03;;;3.60;;
55328;SDS011;41205;44.264;19.884;2023-07-31T12:05:49;4.20;;;3.20;;
55328;SDS011;41205;44.264;19.884;2023-07-31T12:08:14;5.40;;;3.28;;
55328;SDS011;41205;44.264;19.884;2023-07-31T12:10:41;3.70;;;3.15;;
55328;SDS011;41205;44.264;19.884;2023-07-31T12:13:10;6.22;;;3.40;;
55328;SDS011;41205;44.264;19.884;2023-07-31T12:15:41;8.73;;;3.70;;
55328;SDS011;41205;44.264;19.884;2023-07-31T12:18:13;5.53;;;3.58;;
55328;SDS011;41205;44.264;19.884;2023-07-31T12:20:43;4.35;;;3.60;;
55328;SDS011;41205;44.264;19.884;2023-07-31T12:23:17;4.90;;;3.35;;
55328;SDS011;41205;44.264;19.884;2023-07-31T12:28:28;5.50;;;3.17;;
55328;SDS011;41205;44.264;19.884;2023-07-31T12:30:57;7.13;;;3.80;;
55328;SDS011;41205;44.264;19.884;2023-07-31T12:33:29;4.05;;;3.03;;
55328;SDS011;41205;44.264;19.884;2023-07-31T12:36:02;5.75;;;3.03;;
55328;SDS011;41205;44.264;19.884;2023-07-31T12:38:29;4.10;;;2.95;;
55328;SDS011;41205;44.264;19.884;2023-07-31T12:40:55;4.13;;;3.50;;
55328;SDS011;41205;44.264;19.884;2023-07-31T12:43:21;4.57;;;3.53;;
55328;SDS011;41205;44.264;19.884;2023-07-31T12:45:46;5.20;;;3.50;;
55328;SDS011;41205;44.264;19.884;2023-07-31T12:48:12;5.38;;;3.22;;
55328;SDS011;41205;44.264;19.884;2023-07-31T12:50:38;5.80;;;3.88;;
55328;SDS011;41205;44.264;19.884;2023-07-31T12:53:04;10.48;;;3.80;;
55328;SDS011;41205;44.264;19.884;2023-07-31T12:55:31;4.97;;;4.00;;
55328;SDS011;41205;44.264;19.884;2023-07-31T12:57:59;5.55;;;3.30;;
55328;SDS011;41205;44.264;19.884;2023-07-31T13:00:28;5.05;;;3.42;;
55328;SDS011;41205;44.264;19.884;2023-07-31T13:02:53;6.05;;;3.55;;
55328;SDS011;41205;44.264;19.884;2023-07-31T13:05:19;5.22;;;3.38;;
55328;SDS011;41205;44.264;19.884;2023-07-31T13:07:46;5.00;;;3.20;;
55328;SDS011;41205;44.264;19.884;2023-07-31T13:10:14;5.13;;;3.72;;
55328;SDS011;41205;44.264;19.884;2023-07-31T13:12:40;6.32;;;3.45;;
55328;SDS011;41205;44.264;19.884;2023-07-31T13:15:06;5.70;;;3.50;;
55328;SDS011;41205;44.264;19.884;2023-07-31T13:17:32;5.03;;;3.22;;
55328;SDS011;41205;44.264;19.884;2023-07-31T13:19:58;20.05;;;5.13;;
55328;SDS011;41205;44.264;19.884;2023-07-31T13:22:24;5.63;;;3.58;;
55328;SDS011;41205;44.264;19.884;2023-07-31T13:24:50;4.75;;;3.33;;
55328;SDS011;41205;44.264;19.884;2023-07-31T13:27:16;4.53;;;3.70;;
55328;SDS011;41205;44.264;19.884;2023-07-31T13:29:44;8.30;;;4.00;;
55328;SDS011;41205;44.264;19.884;2023-07-31T13:32:10;4.10;;;3.08;;
55328;SDS011;41205;44.264;19.884;2023-07-31T13:34:35;4.28;;;3.38;;
55328;SDS011;41205;44.264;19.884;2023-07-31T13:37:01;5.35;;;3.30;;
55328;SDS011;41205;44.264;19.884;2023-07-31T13:39:27;5.35;;;3.63;;
55328;SDS011;41205;44.264;19.884;2023-07-31T13:41:53;4.65;;;3.22;;
55328;SDS011;41205;44.264;19.884;2023-07-31T13:44:18;5.60;;;3.42;;
55328;SDS011;41205;44.264;19.884;2023-07-31T13:46:44;5.57;;;3.15;;
55328;SDS011;41205;44.264;19.884;2023-07-31T13:49:10;4.00;;;2.95;;
55328;SDS011;41205;44.264;19.884;2023-07-31T13:51:35;5.15;;;3.50;;
55328;SDS011;41205;44.264;19.884;2023-07-31T13:54:02;7.05;;;3.20;;
55328;SDS011;41205;44.264;19.884;2023-07-31T13:56:28;3.50;;;3.00;;
55328;SDS011;41205;44.264;19.884;2023-07-31T13:58:54;4.55;;;3.67;;
55328;SDS011;41205;44.264;19.884;2023-07-31T14:01:19;7.60;;;3.80;;
55328;SDS011;41205;44.264;19.884;2023-07-31T14:03:45;7.20;;;3.35;;
55328;SDS011;41205;44.264;19.884;2023-07-31T14:06:11;5.40;;;3.58;;
55328;SDS011;41205;44.264;19.884;2023-07-31T14:08:36;5.63;;;3.50;;
55328;SDS011;41205;44.264;19.884;2023-07-31T14:11:02;4.25;;;3.28;;
55328;SDS011;41205;44.264;19.884;2023-07-31T14:13:28;7.32;;;3.25;;
55328;SDS011;41205;44.264;19.884;2023-07-31T14:15:53;5.95;;;3.55;;
55328;SDS011;41205;44.264;19.884;2023-07-31T14:18:19;8.82;;;3.28;;
55328;SDS011;41205;44.264;19.884;2023-07-31T14:20:45;3.75;;;3.30;;
55328;SDS011;41205;44.264;19.884;2023-07-31T14:23:10;4.38;;;3.22;;
55328;SDS011;41205;44.264;19.884;2023-07-31T14:25:36;9.45;;;3.65;;
55328;SDS011;41205;44.264;19.884;2023-07-31T14:28:02;5.28;;;4.00;;
55328;SDS011;41205;44.264;19.884;2023-07-31T14:30:28;5.15;;;3.08;;
55328;SDS011;41205;44.264;19.884;2023-07-31T14:32:53;5.35;;;2.97;;
55328;SDS011;41205;44.264;19.884;2023-07-31T14:35:19;6.38;;;3.20;;
55328;SDS011;41205;44.264;19.884;2023-07-31T14:37:50;6.68;;;3.63;;
55328;SDS011;41205;44.264;19.884;2023-07-31T14:40:30;4.90;;;3.05;;
55328;SDS011;41205;44.264;19.884;2023-07-31T14:42:57;7.25;;;3.65;;
55328;SDS011;41205;44.264;19.884;2023-07-31T14:45:36;3.78;;;2.97;;
55328;SDS011;41205;44.264;19.884;2023-07-31T14:48:21;4.68;;;3.38;;
55328;SDS011;41205;44.264;19.884;2023-07-31T14:50:47;5.20;;;3.05;;
55328;SDS011;41205;44.264;19.884;2023-07-31T14:53:13;6.97;;;3.08;;
55328;SDS011;41205;44.264;19.884;2023-07-31T14:55:38;5.22;;;3.30;;
55328;SDS011;41205;44.264;19.884;2023-07-31T14:58:04;8.18;;;3.70;;
55328;SDS011;41205;44.264;19.884;2023-07-31T15:00:30;4.72;;;3.22;;
55328;SDS011;41205;44.264;19.884;2023-07-31T15:02:55;6.43;;;3.55;;